createdAt,value
2018-05-01T00:01:57.234Z,97499.66
2018-05-01T00:04:24.684Z,97496.48
2018-05-01T00:06:52.143Z,97503.39
2018-05-01T00:09:19.612Z,97503.07
2018-05-01T00:11:47.064Z,97517.06
2018-05-01T00:14:14.539Z,97509.23
2018-05-01T00:16:41.988Z,97528.33
2018-05-01T00:19:09.465Z,97528.87
2018-05-01T00:21:36.924Z,97535.62
2018-05-01T00:24:04.374Z,97540.48
2018-05-01T00:26:31.844Z,97543.38
2018-05-01T00:28:59.394Z,97544.64
2018-05-01T00:31:26.793Z,97543.60
2018-05-01T00:33:54.249Z,97550.41
2018-05-01T00:36:21.733Z,97551.81
2018-05-01T00:38:49.195Z,97541.65
2018-05-01T00:41:16.673Z,97542.69
2018-05-01T00:43:44.130Z,97538.24
2018-05-01T00:46:11.581Z,97533.86
2018-05-01T00:48:39.052Z,97548.24
2018-05-01T00:51:06.500Z,97545.54
2018-05-01T00:53:33.973Z,97552.41
2018-05-01T00:56:01.428Z,97550.09
2018-05-01T00:58:28.925Z,97553.63
2018-05-01T01:00:56.385Z,97552.38
2018-05-01T01:03:23.851Z,97548.54
2018-05-01T01:05:51.318Z,97548.75
2018-05-01T01:08:18.784Z,97554.17
2018-05-01T01:10:46.259Z,97553.81
2018-05-01T01:13:13.721Z,97558.55
2018-05-01T01:15:41.196Z,97571.09
2018-05-01T01:18:08.659Z,97574.31
2018-05-01T01:20:36.144Z,97578.59
2018-05-01T01:23:03.600Z,97581.12
2018-05-01T01:25:31.068Z,97579.48
2018-05-01T01:27:58.520Z,97583.74
2018-05-01T01:30:25.983Z,97580.12
2018-05-01T01:32:53.459Z,97580.65
2018-05-01T01:35:20.387Z,97585.80
2018-05-01T01:37:47.351Z,97584.70
2018-05-01T01:40:14.279Z,97582.86
2018-05-01T01:42:41.223Z,97588.72
2018-05-01T01:45:08.204Z,97596.30
2018-05-01T01:47:35.124Z,97596.09
2018-05-01T01:50:02.080Z,97609.64
2018-05-01T01:52:29.004Z,97609.23
2018-05-01T01:54:55.943Z,97607.64
2018-05-01T01:57:22.861Z,97613.59
2018-05-01T01:59:49.799Z,97619.27
2018-05-01T02:02:16.747Z,97624.23
2018-05-01T02:04:43.664Z,97627.31
2018-05-01T02:07:10.607Z,97626.41
2018-05-01T02:09:37.524Z,97626.19
2018-05-01T02:12:04.441Z,97622.17
2018-05-01T02:14:31.372Z,97619.03
2018-05-01T02:16:58.291Z,97617.30
2018-05-01T02:19:25.266Z,97609.83
2018-05-01T02:21:52.175Z,97606.88
2018-05-01T02:24:19.422Z,97604.31
2018-05-01T02:26:46.360Z,97597.03
2018-05-01T02:29:13.279Z,97595.88
2018-05-01T02:31:40.226Z,97605.42
2018-05-01T02:34:07.161Z,97605.36
2018-05-01T02:36:34.092Z,97609.13
2018-05-01T02:39:01.042Z,97612.05
2018-05-01T02:41:27.961Z,97614.94
2018-05-01T02:43:54.908Z,97610.86
2018-05-01T02:46:21.840Z,97614.28
2018-05-01T02:48:48.765Z,97617.33
2018-05-01T02:51:15.703Z,97614.78
2018-05-01T02:53:42.633Z,97610.16
2018-05-01T02:56:09.573Z,97615.07
2018-05-01T02:58:36.575Z,97610.81
2018-05-01T03:01:03.527Z,97610.53
2018-05-01T03:03:30.448Z,97613.70
2018-05-01T03:05:57.420Z,97620.56
2018-05-01T03:08:24.343Z,97627.64
2018-05-01T03:10:51.261Z,97624.64
2018-05-01T03:13:18.205Z,97622.77
2018-05-01T03:15:45.117Z,97622.94
2018-05-01T03:18:12.048Z,97625.58
2018-05-01T03:20:38.966Z,97623.28
2018-05-01T03:23:05.899Z,97629.66
2018-05-01T03:25:32.815Z,97637.04
2018-05-01T03:27:59.762Z,97635.81
2018-05-01T03:30:26.686Z,97632.34
2018-05-01T03:32:53.604Z,97636.66
2018-05-01T03:35:20.543Z,97637.61
2018-05-01T03:37:47.475Z,97637.69
2018-05-01T03:40:14.415Z,97630.28
2018-05-01T03:42:41.332Z,97625.36
2018-05-01T03:45:08.278Z,97624.81
2018-05-01T03:47:35.203Z,97625.59
2018-05-01T03:50:02.169Z,97633.16
2018-05-01T03:52:29.092Z,97630.75
2018-05-01T03:54:56.020Z,97623.67
2018-05-01T03:57:22.960Z,97629.56
2018-05-01T03:59:49.883Z,97640.56
2018-05-01T04:02:16.887Z,97646.97
2018-05-01T04:04:44.656Z,97648.38
2018-05-01T04:07:11.608Z,97655.09
2018-05-01T04:09:38.536Z,97650.72
2018-05-01T04:12:05.479Z,97649.91
2018-05-01T04:14:32.389Z,97648.61
2018-05-01T04:16:59.331Z,97656.00
2018-05-01T04:19:26.250Z,97663.38
2018-05-01T04:21:53.181Z,97667.98
2018-05-01T04:24:20.120Z,97673.67
2018-05-01T04:26:47.046Z,97675.72
2018-05-01T04:29:13.988Z,97694.20
2018-05-01T04:31:40.900Z,97703.77
2018-05-01T04:34:07.833Z,97708.81
2018-05-01T04:36:34.760Z,97706.34
2018-05-01T04:39:01.709Z,97699.16
2018-05-01T04:41:28.646Z,97698.50
2018-05-01T04:43:55.551Z,97693.00
2018-05-01T04:46:22.499Z,97698.64
2018-05-01T04:48:49.411Z,97699.28
2018-05-01T04:51:16.344Z,97697.27
2018-05-01T04:53:43.274Z,97702.41
2018-05-01T04:56:10.222Z,97702.11
2018-05-01T04:58:37.153Z,97699.75
2018-05-01T05:01:04.376Z,97706.44
2018-05-01T05:03:31.295Z,97710.47
2018-05-01T05:05:58.224Z,97706.02
2018-05-01T05:08:25.170Z,97711.83
2018-05-01T05:10:52.086Z,97712.13
2018-05-01T05:13:19.019Z,97708.63
2018-05-01T05:15:45.942Z,97709.38
2018-05-01T05:18:13.191Z,97708.28
2018-05-01T05:20:40.121Z,97716.70
2018-05-01T05:23:07.068Z,97721.40
2018-05-01T05:25:33.986Z,97725.33
2018-05-01T05:28:00.911Z,97730.16
2018-05-01T05:30:27.851Z,97732.22
2018-05-01T05:32:54.784Z,97726.85
2018-05-01T05:35:21.731Z,97731.73
2018-05-01T05:37:48.643Z,97740.20
2018-05-01T05:40:15.581Z,97739.30
2018-05-01T05:42:43.094Z,97742.84
2018-05-01T05:45:10.003Z,97742.84
2018-05-01T05:47:36.928Z,97744.80
2018-05-01T05:50:03.853Z,97752.09
2018-05-01T05:52:30.788Z,97749.09
2018-05-01T05:54:57.708Z,97748.77
2018-05-01T05:57:24.651Z,97743.19
2018-05-01T05:59:51.581Z,97747.36
2018-05-01T06:02:18.544Z,97752.50
2018-05-01T06:04:45.461Z,97754.80
2018-05-01T06:07:12.403Z,97758.20
2018-05-01T06:09:39.345Z,97769.34
2018-05-01T06:12:06.270Z,97772.05
2018-05-01T06:14:33.294Z,97785.31
2018-05-01T06:17:00.216Z,97773.06
2018-05-01T06:19:27.156Z,97783.34
2018-05-01T06:21:54.167Z,97782.70
2018-05-01T06:24:21.029Z,97781.98
2018-05-01T06:26:47.944Z,97788.41
2018-05-01T06:29:14.884Z,97774.41
2018-05-01T06:31:41.811Z,97775.29
2018-05-01T06:34:08.743Z,97771.38
2018-05-01T06:36:35.671Z,97774.47
2018-05-01T06:39:02.591Z,97771.66
2018-05-01T06:41:29.625Z,97769.30
2018-05-01T06:43:56.558Z,97774.84
2018-05-01T06:46:23.677Z,97772.48
2018-05-01T06:48:50.602Z,97757.11
2018-05-01T06:51:17.537Z,97760.27
2018-05-01T06:53:44.748Z,97768.45
2018-05-01T06:56:11.675Z,97777.48
2018-05-01T06:58:38.649Z,97783.22
2018-05-01T07:01:05.571Z,97797.58
2018-05-01T07:03:32.517Z,97805.19
2018-05-01T07:05:59.439Z,97803.44
2018-05-01T07:08:26.365Z,97798.84
2018-05-01T07:10:53.299Z,97805.14
2018-05-01T07:13:20.225Z,97796.92
2018-05-01T07:15:47.242Z,97801.23
2018-05-01T07:18:14.108Z,97801.70
2018-05-01T07:20:41.039Z,97806.58
2018-05-01T07:23:07.960Z,97808.03
2018-05-01T07:25:34.881Z,97798.86
2018-05-01T07:28:01.818Z,97791.98
2018-05-01T07:30:28.741Z,97795.04
2018-05-01T07:32:55.690Z,97795.78
2018-05-01T07:35:22.604Z,97791.81
2018-05-01T07:37:49.855Z,97782.23
2018-05-01T07:40:16.775Z,97790.22
2018-05-01T07:42:43.721Z,97789.21
2018-05-01T07:45:10.689Z,97785.14
2018-05-01T07:47:37.603Z,97785.33
2018-05-01T07:50:04.540Z,97786.24
2018-05-01T07:52:31.466Z,97790.87
2018-05-01T07:54:58.382Z,97806.86
2018-05-01T07:57:25.309Z,97812.44
2018-05-01T07:59:52.228Z,97810.52
2018-05-01T08:02:19.183Z,97807.40
2018-05-01T08:04:46.104Z,97813.47
2018-05-01T08:07:13.020Z,97815.28
2018-05-01T08:09:39.951Z,97812.69
2018-05-01T08:12:06.944Z,97801.98
2018-05-01T08:14:33.813Z,97801.44
2018-05-01T08:17:00.728Z,97803.43
2018-05-01T08:19:27.653Z,97796.34
2018-05-01T08:21:54.596Z,97790.77
2018-05-01T08:24:21.554Z,97781.48
2018-05-01T08:26:48.480Z,97785.03
2018-05-01T08:29:15.400Z,97782.68
2018-05-01T08:31:42.360Z,97777.72
2018-05-01T08:34:09.276Z,97789.66
2018-05-01T08:36:36.223Z,97786.20
2018-05-01T08:39:03.139Z,97794.23
2018-05-01T08:41:30.055Z,97796.51
2018-05-01T08:43:56.996Z,97796.42
2018-05-01T08:46:23.916Z,97794.70
2018-05-01T08:48:50.848Z,97793.22
2018-05-01T08:51:17.763Z,97802.70
2018-05-01T08:53:44.717Z,97806.02
2018-05-01T08:56:11.636Z,97808.34
2018-05-01T08:58:38.555Z,97806.14
2018-05-01T09:01:05.503Z,97808.83
2018-05-01T09:03:32.424Z,97793.32
2018-05-01T09:05:59.356Z,97780.97
2018-05-01T09:08:26.271Z,97795.34
2018-05-01T09:10:53.195Z,97778.70
2018-05-01T09:13:20.128Z,97781.09
2018-05-01T09:15:47.065Z,97787.98
2018-05-01T09:18:14.045Z,97784.95
2018-05-01T09:20:40.948Z,97782.69
2018-05-01T09:23:07.907Z,97778.66
2018-05-01T09:25:34.822Z,97788.30
2018-05-01T09:28:01.765Z,97783.14
2018-05-01T09:30:28.689Z,97782.06
2018-05-01T09:32:55.641Z,97782.70
2018-05-01T09:35:22.660Z,97791.92
2018-05-01T09:37:49.500Z,97790.20
2018-05-01T09:40:16.460Z,97786.95
2018-05-01T09:42:43.442Z,97785.15
2018-05-01T09:45:10.323Z,97773.52
2018-05-01T09:47:37.350Z,97776.73
2018-05-01T09:50:04.444Z,97775.78
2018-05-01T09:52:31.900Z,97767.33
2018-05-01T09:54:59.409Z,97769.47
2018-05-01T09:57:26.896Z,97764.97
2018-05-01T09:59:54.354Z,97763.59
2018-05-01T10:02:21.824Z,97764.82
2018-05-01T10:04:49.276Z,97778.30
2018-05-01T10:07:16.765Z,97774.64
2018-05-01T10:09:44.235Z,97789.66
2018-05-01T10:12:11.736Z,97795.27
2018-05-01T10:14:39.167Z,97784.97
2018-05-01T10:17:06.629Z,97779.44
2018-05-01T10:19:34.116Z,97776.16
2018-05-01T10:22:01.574Z,97771.81
2018-05-01T10:24:29.050Z,97775.30
2018-05-01T10:26:56.506Z,97782.31
2018-05-01T10:29:23.959Z,97777.32
2018-05-01T10:31:51.428Z,97774.23
2018-05-01T10:34:18.884Z,97786.03
2018-05-01T10:36:46.360Z,97788.86
2018-05-01T10:39:13.827Z,97784.70
2018-05-01T10:41:41.296Z,97786.66
2018-05-01T10:44:09.020Z,97771.54
2018-05-01T10:46:36.423Z,97774.27
2018-05-01T10:49:03.915Z,97767.05
2018-05-01T10:51:31.376Z,97772.11
2018-05-01T10:53:58.863Z,97776.40
2018-05-01T10:56:26.324Z,97772.66
2018-05-01T10:58:53.811Z,97775.61
2018-05-01T11:01:21.264Z,97768.25
2018-05-01T11:03:48.739Z,97768.06
2018-05-01T11:06:16.257Z,97761.53
2018-05-01T11:08:43.712Z,97763.33
2018-05-01T11:11:11.556Z,97771.88
2018-05-01T11:13:39.013Z,97763.52
2018-05-01T11:16:06.488Z,97769.55
2018-05-01T11:18:33.948Z,97758.13
2018-05-01T11:21:01.437Z,97763.78
2018-05-01T11:23:28.892Z,97765.74
2018-05-01T11:25:56.375Z,97770.81
2018-05-01T11:28:23.846Z,97772.00
2018-05-01T11:30:51.324Z,97785.44
2018-05-01T11:33:18.800Z,97789.98
2018-05-01T11:35:46.254Z,97785.80
2018-05-01T11:38:13.723Z,97787.41
2018-05-01T11:40:41.184Z,97793.68
2018-05-01T11:43:08.649Z,97787.77
2018-05-01T11:45:36.129Z,97793.30
2018-05-01T11:48:03.631Z,97789.47
2018-05-01T11:50:31.081Z,97793.58
2018-05-01T11:52:58.672Z,97795.13
2018-05-01T11:55:26.168Z,97801.61
2018-05-01T11:57:53.624Z,97806.27
2018-05-01T12:00:21.131Z,97813.26
2018-05-01T12:02:48.587Z,97815.05
2018-05-01T12:05:16.061Z,97814.78
2018-05-01T12:07:43.538Z,97818.42
2018-05-01T12:10:10.979Z,97817.16
2018-05-01T12:12:38.908Z,97810.67
2018-05-01T12:15:06.360Z,97816.55
2018-05-01T12:17:33.832Z,97811.16
2018-05-01T12:20:01.290Z,97813.92
2018-05-01T12:22:28.761Z,97809.81
2018-05-01T12:24:56.224Z,97798.49
2018-05-01T12:27:24.300Z,97799.38
2018-05-01T12:29:51.764Z,97801.02
2018-05-01T12:32:19.228Z,97803.14
2018-05-01T12:34:46.699Z,97802.98
2018-05-01T12:37:14.160Z,97810.59
2018-05-01T12:39:41.729Z,97818.01
2018-05-01T12:42:09.451Z,97806.39
2018-05-01T12:44:37.214Z,97796.95
2018-05-01T12:47:04.857Z,97797.48
2018-05-01T12:49:32.352Z,97800.31
2018-05-01T12:51:59.808Z,97796.88
2018-05-01T12:54:27.319Z,97791.42
2018-05-01T12:56:54.839Z,97792.55
2018-05-01T12:59:22.404Z,97795.20
2018-05-01T13:01:49.937Z,97792.41
2018-05-01T13:04:17.408Z,97788.37
2018-05-01T13:06:45.236Z,97789.17
2018-05-01T13:09:13.003Z,97790.54
2018-05-01T13:11:40.491Z,97784.59
2018-05-01T13:14:07.945Z,97786.81
2018-05-01T13:16:35.408Z,97778.58
2018-05-01T13:19:02.883Z,97781.25
2018-05-01T13:21:30.349Z,97778.52
2018-05-01T13:23:57.845Z,97784.66
2018-05-01T13:26:25.303Z,97785.71
2018-05-01T13:28:52.784Z,97774.52
2018-05-01T13:31:20.249Z,97765.70
2018-05-01T13:33:47.738Z,97774.98
2018-05-01T13:36:15.204Z,97775.13
2018-05-01T13:38:42.679Z,97782.61
2018-05-01T13:41:10.149Z,97775.79
2018-05-01T13:43:37.603Z,97784.70
2018-05-01T13:46:05.076Z,97778.89
2018-05-01T13:48:32.536Z,97784.55
2018-05-01T13:51:00.438Z,97782.91
2018-05-01T13:53:27.916Z,97779.70
2018-05-01T13:55:55.380Z,97780.06
2018-05-01T13:58:22.846Z,97770.47
2018-05-01T14:00:50.305Z,97779.67
2018-05-01T14:03:18.803Z,97785.07
2018-05-01T14:05:46.403Z,97783.48
2018-05-01T14:08:13.960Z,97767.05
2018-05-01T14:10:41.421Z,97782.83
2018-05-01T14:13:08.952Z,97775.66
2018-05-01T14:15:36.390Z,97779.06
2018-05-01T14:18:03.875Z,97779.80
2018-05-01T14:20:31.507Z,97773.83
2018-05-01T14:22:59.210Z,97777.41
2018-05-01T14:25:26.813Z,97769.47
2018-05-01T14:27:54.161Z,97764.27
2018-05-01T14:30:21.647Z,97767.16
2018-05-01T14:32:49.642Z,97759.34
2018-05-01T14:35:17.164Z,97769.63
2018-05-01T14:37:44.616Z,97759.12
2018-05-01T14:40:12.069Z,97750.42
2018-05-01T14:42:39.548Z,97748.53
2018-05-01T14:45:07.032Z,97752.98
2018-05-01T14:47:34.517Z,97740.22
2018-05-01T14:50:02.017Z,97748.02
2018-05-01T14:52:29.496Z,97736.50
2018-05-01T14:54:56.959Z,97743.22
2018-05-01T14:57:24.454Z,97741.27
2018-05-01T14:59:51.923Z,97730.67
2018-05-01T15:02:19.400Z,97735.71
2018-05-01T15:04:46.872Z,97734.39
2018-05-01T15:07:14.327Z,97734.15
2018-05-01T15:09:41.795Z,97737.57
2018-05-01T15:12:09.263Z,97737.91
2018-05-01T15:14:36.741Z,97730.16
2018-05-01T15:17:04.196Z,97734.10
2018-05-01T15:19:31.663Z,97731.29
2018-05-01T15:21:59.149Z,97724.40
2018-05-01T15:24:26.599Z,97725.58
2018-05-01T15:26:54.067Z,97720.81
2018-05-01T15:29:21.537Z,97725.86
2018-05-01T15:31:49.009Z,97726.94
2018-05-01T15:34:16.468Z,97729.59
2018-05-01T15:36:43.959Z,97732.22
2018-05-01T15:39:11.412Z,97726.86
2018-05-01T15:41:38.873Z,97727.97
2018-05-01T15:44:06.409Z,97729.28
2018-05-01T15:46:33.868Z,97730.48
2018-05-01T15:49:01.331Z,97724.70
2018-05-01T15:51:28.786Z,97739.00
2018-05-01T15:53:56.277Z,97737.60
2018-05-01T15:56:23.744Z,97738.36
2018-05-01T15:58:51.209Z,97734.43
2018-05-01T16:01:18.903Z,97729.72
2018-05-01T16:03:46.693Z,97737.25
2018-05-01T16:06:14.172Z,97729.26
2018-05-01T16:08:41.629Z,97729.93
2018-05-01T16:11:09.115Z,97724.92
2018-05-01T16:13:36.571Z,97729.95
2018-05-01T16:16:04.079Z,97728.98
2018-05-01T16:18:31.549Z,97729.67
2018-05-01T16:20:59.003Z,97731.47
2018-05-01T16:23:26.552Z,97734.28
2018-05-01T16:25:54.422Z,97740.11
2018-05-01T16:28:21.891Z,97737.91
2018-05-01T16:30:49.346Z,97738.32
2018-05-01T16:33:16.935Z,97736.16
2018-05-01T16:35:44.393Z,97730.91
2018-05-01T16:38:11.871Z,97722.55
2018-05-01T16:40:39.331Z,97721.20
2018-05-01T16:43:06.794Z,97721.70
2018-05-01T16:45:34.505Z,97723.25
2018-05-01T16:48:02.004Z,97711.23
2018-05-01T16:50:29.503Z,97711.04
2018-05-01T16:52:56.956Z,97706.70
2018-05-01T16:55:24.432Z,97703.86
2018-05-01T16:57:51.883Z,97713.73
2018-05-01T17:00:19.508Z,97712.69
2018-05-01T17:02:47.012Z,97711.44
2018-05-01T17:05:14.675Z,97719.28
2018-05-01T17:07:42.151Z,97723.13
2018-05-01T17:10:09.991Z,97713.30
2018-05-01T17:12:37.471Z,97725.72
2018-05-01T17:15:04.920Z,97723.31
2018-05-01T17:17:32.395Z,97724.41
2018-05-01T17:19:59.840Z,97720.42
2018-05-01T17:22:27.444Z,97717.19
2018-05-01T17:24:55.296Z,97723.55
2018-05-01T17:27:22.789Z,97720.95
2018-05-01T17:29:50.657Z,97715.89
2018-05-01T17:32:18.255Z,97719.22
2018-05-01T17:34:46.064Z,97712.52
2018-05-01T17:37:13.881Z,97719.55
2018-05-01T17:39:41.344Z,97725.20
2018-05-01T17:42:09.098Z,97725.30
2018-05-01T17:44:37.352Z,97726.81
2018-05-01T17:47:05.259Z,97733.81
2018-05-01T17:49:33.081Z,97742.39
2018-05-01T17:52:01.069Z,97751.04
2018-05-01T17:54:28.587Z,97754.09
2018-05-01T17:56:56.840Z,97765.33
2018-05-01T17:59:25.237Z,97766.66
2018-05-01T18:01:53.205Z,97774.72
2018-05-01T18:04:20.720Z,97769.64
2018-05-01T18:06:48.205Z,97768.59
2018-05-01T18:09:15.660Z,97765.70
2018-05-01T18:11:43.758Z,97766.78
2018-05-01T18:14:11.237Z,97763.44
2018-05-01T18:16:38.723Z,97760.58
2018-05-01T18:19:06.252Z,97757.03
2018-05-01T18:21:33.715Z,97757.25
2018-05-01T18:24:01.179Z,97758.66
2018-05-01T18:26:28.639Z,97760.75
2018-05-01T18:28:56.129Z,97751.63
2018-05-01T18:31:23.615Z,97751.53
2018-05-01T18:33:51.080Z,97749.28
2018-05-01T18:36:18.611Z,97756.01
2018-05-01T18:38:46.105Z,97760.80
2018-05-01T18:41:13.584Z,97755.70
2018-05-01T18:43:41.054Z,97764.12
2018-05-01T18:46:08.535Z,97766.61
2018-05-01T18:48:36.050Z,97766.55
2018-05-01T18:51:03.529Z,97766.30
2018-05-01T18:53:31.227Z,97775.05
2018-05-01T18:55:58.703Z,97773.77
2018-05-01T18:58:26.155Z,97772.64
2018-05-01T19:00:53.634Z,97780.17
2018-05-01T19:03:21.108Z,97782.16
2018-05-01T19:05:48.609Z,97783.48
2018-05-01T19:08:16.064Z,97782.30
2018-05-01T19:10:43.521Z,97782.90
2018-05-01T19:13:11.093Z,97786.39
2018-05-01T19:15:38.669Z,97791.02
2018-05-01T19:18:06.100Z,97790.13
2018-05-01T19:20:33.570Z,97794.04
2018-05-01T19:23:01.034Z,97797.23
2018-05-01T19:25:28.691Z,97801.88
2018-05-01T19:27:56.947Z,97800.80
2018-05-01T19:30:24.775Z,97805.02
2018-05-01T19:32:52.474Z,97807.23
2018-05-01T19:35:19.927Z,97815.88
2018-05-01T19:37:47.408Z,97814.89
2018-05-01T19:40:14.864Z,97817.89
2018-05-01T19:42:42.351Z,97817.28
2018-05-01T19:45:09.861Z,97812.61
2018-05-01T19:47:37.425Z,97812.08
2018-05-01T19:50:04.932Z,97813.52
2018-05-01T19:52:32.401Z,97809.89
2018-05-01T19:54:59.881Z,97806.23
2018-05-01T19:57:27.340Z,97806.28
2018-05-01T19:59:54.845Z,97801.28
2018-05-01T20:02:22.445Z,97800.38
2018-05-01T20:04:49.914Z,97800.30
2018-05-01T20:07:17.428Z,97803.19
2018-05-01T20:09:44.913Z,97813.14
2018-05-01T20:12:12.372Z,97816.16
2018-05-01T20:14:39.844Z,97813.94
2018-05-01T20:17:07.367Z,97816.82
2018-05-01T20:19:35.107Z,97815.55
2018-05-01T20:22:03.628Z,97820.63
2018-05-01T20:24:31.084Z,97817.91
2018-05-01T20:26:58.553Z,97817.55
2018-05-01T20:29:26.205Z,97813.80
2018-05-01T20:31:53.695Z,97813.45
2018-05-01T20:34:21.160Z,97810.49
2018-05-01T20:36:48.716Z,97812.42
2018-05-01T20:39:16.211Z,97807.23
2018-05-01T20:41:43.687Z,97807.05
2018-05-01T20:44:11.162Z,97803.53
2018-05-01T20:46:38.833Z,97802.18
2018-05-01T20:49:06.346Z,97804.21
2018-05-01T20:51:33.811Z,97801.28
2018-05-01T20:54:01.284Z,97805.12
2018-05-01T20:56:28.744Z,97805.95
2018-05-01T20:58:56.223Z,97807.61
2018-05-01T21:01:23.708Z,97809.95
2018-05-01T21:03:51.171Z,97808.08
2018-05-01T21:06:18.667Z,97812.90
2018-05-01T21:08:46.432Z,97805.21
2018-05-01T21:11:13.916Z,97801.38
2018-05-01T21:13:41.392Z,97801.26
2018-05-01T21:16:08.852Z,97797.22
2018-05-01T21:18:37.192Z,97807.16
2018-05-01T21:21:04.655Z,97803.78
2018-05-01T21:23:32.108Z,97806.62
2018-05-01T21:25:59.577Z,97809.00
2018-05-01T21:28:27.025Z,97813.10
2018-05-01T21:30:54.503Z,97806.56
2018-05-01T21:33:21.959Z,97811.80
2018-05-01T21:35:49.423Z,97812.39
2018-05-01T21:38:16.903Z,97812.08
2018-05-01T21:40:44.359Z,97804.91
2018-05-01T21:43:11.820Z,97804.48
2018-05-01T21:45:39.292Z,97818.56
2018-05-01T21:48:06.769Z,97826.65
2018-05-01T21:50:34.230Z,97827.89
2018-05-01T21:53:01.693Z,97826.51
2018-05-01T21:55:29.176Z,97834.30
2018-05-01T21:57:57.459Z,97839.03
2018-05-01T22:00:24.927Z,97837.93
2018-05-01T22:02:52.381Z,97838.34
2018-05-01T22:05:19.835Z,97842.45
2018-05-01T22:07:47.300Z,97840.43
2018-05-01T22:10:14.769Z,97842.86
2018-05-01T22:12:42.235Z,97843.68
2018-05-01T22:15:09.960Z,97846.55
2018-05-01T22:17:37.416Z,97852.14
2018-05-01T22:20:04.884Z,97850.44
2018-05-01T22:22:32.348Z,97852.48
2018-05-01T22:24:59.850Z,97853.32
2018-05-01T22:27:27.312Z,97859.09
2018-05-01T22:29:55.132Z,97859.28
2018-05-01T22:32:22.603Z,97855.12
2018-05-01T22:34:50.048Z,97859.56
2018-05-01T22:37:18.812Z,97860.09
2018-05-01T22:39:46.267Z,97860.23
2018-05-01T22:42:13.723Z,97863.16
2018-05-01T22:44:41.192Z,97864.05
2018-05-01T22:47:08.639Z,97863.99
2018-05-01T22:49:36.112Z,97856.03
2018-05-01T22:52:03.575Z,97857.30
2018-05-01T22:54:31.065Z,97849.94
2018-05-01T22:56:58.533Z,97847.86
2018-05-01T22:59:25.998Z,97839.37
2018-05-01T23:01:53.482Z,97839.63
2018-05-01T23:04:20.944Z,97834.59
2018-05-01T23:06:48.416Z,97829.75
2018-05-01T23:09:15.879Z,97828.80
2018-05-01T23:11:43.351Z,97833.81
2018-05-01T23:14:10.809Z,97832.02
2018-05-01T23:16:38.276Z,97830.00
2018-05-01T23:19:05.758Z,97827.45
2018-05-01T23:21:33.227Z,97825.03
2018-05-01T23:24:00.719Z,97829.06
2018-05-01T23:26:28.960Z,97826.48
2018-05-01T23:28:56.404Z,97831.91
2018-05-01T23:31:23.884Z,97844.41
2018-05-01T23:33:51.345Z,97844.56
2018-05-01T23:36:19.272Z,97835.09
2018-05-01T23:38:46.724Z,97831.91
2018-05-01T23:41:14.177Z,97832.98
2018-05-01T23:43:41.659Z,97831.89
2018-05-01T23:46:09.116Z,97830.65
2018-05-01T23:48:36.594Z,97826.07
2018-05-01T23:51:04.043Z,97817.41
2018-05-01T23:53:31.916Z,97821.39
2018-05-01T23:55:59.405Z,97828.13
2018-05-01T23:58:26.870Z,97825.13
